sensor_id;sensor_type;location;lat;lon;timestamp;temperature;humidity
8178;DHT22;4130;48.740;9.132;2023-05-16T00:02:00;10.60;99.90
8178;DHT22;4130;48.740;9.132;2023-05-16T00:04:27;10.60;99.90
8178;DHT22;4130;48.740;9.132;2023-05-16T00:06:55;10.60;99.90
8178;DHT22;4130;48.740;9.132;2023-05-16T00:09:22;10.60;99.90
8178;DHT22;4130;48.740;9.132;2023-05-16T00:11:49;10.60;99.90
8178;DHT22;4130;48.740;9.132;2023-05-16T00:14:16;10.60;99.90
8178;DHT22;4130;48.740;9.132;2023-05-16T00:16:44;10.70;99.90
8178;DHT22;4130;48.740;9.132;2023-05-16T00:19:13;10.70;99.90
8178;DHT22;4130;48.740;9.132;2023-05-16T00:21:39;10.70;99.90
8178;DHT22;4130;48.740;9.132;2023-05-16T00:24:07;10.70;99.90
8178;DHT22;4130;48.740;9.132;2023-05-16T00:26:33;10.70;99.90
8178;DHT22;4130;48.740;9.132;2023-05-16T00:29:00;10.80;99.90
8178;DHT22;4130;48.740;9.132;2023-05-16T00:31:27;10.90;99.90
8178;DHT22;4130;48.740;9.132;2023-05-16T00:33:54;10.80;99.90
8178;DHT22;4130;48.740;9.132;2023-05-16T00:36:22;10.80;99.90
8178;DHT22;4130;48.740;9.132;2023-05-16T00:38:49;10.80;99.90
8178;DHT22;4130;48.740;9.132;2023-05-16T00:41:16;10.80;99.90
8178;DHT22;4130;48.740;9.132;2023-05-16T00:43:43;10.90;99.90
8178;DHT22;4130;48.740;9.132;2023-05-16T00:46:10;10.90;99.90
8178;DHT22;4130;48.740;9.132;2023-05-16T00:48:37;11.00;99.90
8178;DHT22;4130;48.740;9.132;2023-05-16T00:51:04;11.00;99.90
8178;DHT22;4130;48.740;9.132;2023-05-16T00:53:35;10.90;99.90
8178;DHT22;4130;48.740;9.132;2023-05-16T00:56:04;10.90;99.90
8178;DHT22;4130;48.740;9.132;2023-05-16T00:58:31;10.90;99.90
8178;DHT22;4130;48.740;9.132;2023-05-16T01:00:59;11.20;99.90
8178;DHT22;4130;48.740;9.132;2023-05-16T01:03:28;10.90;99.90
8178;DHT22;4130;48.740;9.132;2023-05-16T01:05:56;10.80;99.90
8178;DHT22;4130;48.740;9.132;2023-05-16T01:08:23;10.80;99.90
8178;DHT22;4130;48.740;9.132;2023-05-16T01:10:59;10.70;99.90
8178;DHT22;4130;48.740;9.132;2023-05-16T01:13:32;10.70;99.90
8178;DHT22;4130;48.740;9.132;2023-05-16T01:16:09;10.60;99.90
8178;DHT22;4130;48.740;9.132;2023-05-16T01:18:40;10.50;99.90
8178;DHT22;4130;48.740;9.132;2023-05-16T01:21:11;10.40;99.90
8178;DHT22;4130;48.740;9.132;2023-05-16T01:23:50;10.40;99.90
8178;DHT22;4130;48.740;9.132;2023-05-16T01:26:21;11.50;99.90
8178;DHT22;4130;48.740;9.132;2023-05-16T01:28:50;10.60;99.90
8178;DHT22;4130;48.740;9.132;2023-05-16T01:31:17;10.50;99.90
8178;DHT22;4130;48.740;9.132;2023-05-16T01:33:44;10.80;99.90
8178;DHT22;4130;48.740;9.132;2023-05-16T01:36:19;10.60;99.90
8178;DHT22;4130;48.740;9.132;2023-05-16T01:38:58;10.50;99.90
8178;DHT22;4130;48.740;9.132;2023-05-16T01:41:34;10.40;99.90
8178;DHT22;4130;48.740;9.132;2023-05-16T01:44:10;10.40;99.90
8178;DHT22;4130;48.740;9.132;2023-05-16T01:46:42;10.30;99.90
8178;DHT22;4130;48.740;9.132;2023-05-16T01:49:15;11.60;99.90
8178;DHT22;4130;48.740;9.132;2023-05-16T01:51:47;11.90;99.90
8178;DHT22;4130;48.740;9.132;2023-05-16T01:54:17;10.30;99.90
8178;DHT22;4130;48.740;9.132;2023-05-16T01:56:51;10.30;99.90
8178;DHT22;4130;48.740;9.132;2023-05-16T01:59:19;10.30;99.90
8178;DHT22;4130;48.740;9.132;2023-05-16T02:01:46;10.60;99.90
8178;DHT22;4130;48.740;9.132;2023-05-16T02:04:13;10.30;99.90
8178;DHT22;4130;48.740;9.132;2023-05-16T02:06:41;10.30;99.90
8178;DHT22;4130;48.740;9.132;2023-05-16T02:09:08;10.30;99.90
8178;DHT22;4130;48.740;9.132;2023-05-16T02:11:34;10.40;99.90
8178;DHT22;4130;48.740;9.132;2023-05-16T02:14:03;10.40;99.90
8178;DHT22;4130;48.740;9.132;2023-05-16T02:16:30;10.40;99.90
8178;DHT22;4130;48.740;9.132;2023-05-16T02:18:56;10.40;99.90
8178;DHT22;4130;48.740;9.132;2023-05-16T02:21:23;10.40;99.90
8178;DHT22;4130;48.740;9.132;2023-05-16T02:23:50;10.40;99.90
8178;DHT22;4130;48.740;9.132;2023-05-16T02:26:17;11.50;99.90
8178;DHT22;4130;48.740;9.132;2023-05-16T02:28:44;10.60;99.90
8178;DHT22;4130;48.740;9.132;2023-05-16T02:31:12;10.60;99.90
8178;DHT22;4130;48.740;9.132;2023-05-16T02:33:39;11.00;99.90
8178;DHT22;4130;48.740;9.132;2023-05-16T02:36:07;10.60;99.90
8178;DHT22;4130;48.740;9.132;2023-05-16T02:38:34;10.70;99.90
8178;DHT22;4130;48.740;9.132;2023-05-16T02:41:00;10.70;99.90
8178;DHT22;4130;48.740;9.132;2023-05-16T02:43:27;10.90;99.90
8178;DHT22;4130;48.740;9.132;2023-05-16T02:45:55;10.60;99.90
8178;DHT22;4130;48.740;9.132;2023-05-16T02:48:23;10.70;99.90
8178;DHT22;4130;48.740;9.132;2023-05-16T02:50:50;10.70;99.90
8178;DHT22;4130;48.740;9.132;2023-05-16T02:53:17;10.70;99.90
8178;DHT22;4130;48.740;9.132;2023-05-16T02:55:44;10.70;99.90
8178;DHT22;4130;48.740;9.132;2023-05-16T02:58:11;10.70;99.90
8178;DHT22;4130;48.740;9.132;2023-05-16T03:00:38;10.70;99.90
8178;DHT22;4130;48.740;9.132;2023-05-16T03:03:05;10.70;99.90
8178;DHT22;4130;48.740;9.132;2023-05-16T03:05:33;10.70;99.90
8178;DHT22;4130;48.740;9.132;2023-05-16T03:08:00;11.30;99.90
8178;DHT22;4130;48.740;9.132;2023-05-16T03:10:27;10.70;99.90
8178;DHT22;4130;48.740;9.132;2023-05-16T03:12:54;10.70;99.90
8178;DHT22;4130;48.740;9.132;2023-05-16T03:15:20;10.70;99.90
8178;DHT22;4130;48.740;9.132;2023-05-16T03:17:47;10.70;99.90
8178;DHT22;4130;48.740;9.132;2023-05-16T03:20:14;10.70;99.90
8178;DHT22;4130;48.740;9.132;2023-05-16T03:22:43;10.60;99.90
8178;DHT22;4130;48.740;9.132;2023-05-16T03:25:10;10.50;99.90
8178;DHT22;4130;48.740;9.132;2023-05-16T03:27:37;10.40;99.90
8178;DHT22;4130;48.740;9.132;2023-05-16T03:30:05;10.40;99.90
8178;DHT22;4130;48.740;9.132;2023-05-16T03:32:33;10.30;99.90
8178;DHT22;4130;48.740;9.132;2023-05-16T03:35:00;10.30;99.90
8178;DHT22;4130;48.740;9.132;2023-05-16T03:37:27;10.30;99.90
8178;DHT22;4130;48.740;9.132;2023-05-16T03:39:56;11.70;99.90
8178;DHT22;4130;48.740;9.132;2023-05-16T03:42:23;10.30;99.90
8178;DHT22;4130;48.740;9.132;2023-05-16T03:44:49;10.50;99.90
8178;DHT22;4130;48.740;9.132;2023-05-16T03:47:17;11.50;99.90
8178;DHT22;4130;48.740;9.132;2023-05-16T03:49:43;10.30;99.90
8178;DHT22;4130;48.740;9.132;2023-05-16T03:52:10;10.30;99.90
8178;DHT22;4130;48.740;9.132;2023-05-16T03:54:37;11.20;99.90
8178;DHT22;4130;48.740;9.132;2023-05-16T03:57:05;11.20;99.90
8178;DHT22;4130;48.740;9.132;2023-05-16T03:59:32;10.20;99.90
8178;DHT22;4130;48.740;9.132;2023-05-16T04:02:00;10.10;99.90
8178;DHT22;4130;48.740;9.132;2023-05-16T04:04:27;10.10;99.90
8178;DHT22;4130;48.740;9.132;2023-05-16T04:06:54;10.10;99.90
8178;DHT22;4130;48.740;9.132;2023-05-16T04:09:20;10.10;99.90
8178;DHT22;4130;48.740;9.132;2023-05-16T04:11:47;11.20;99.90
8178;DHT22;4130;48.740;9.132;2023-05-16T04:14:15;10.10;99.90
8178;DHT22;4130;48.740;9.132;2023-05-16T04:16:42;10.90;99.90
8178;DHT22;4130;48.740;9.132;2023-05-16T04:19:09;10.30;99.90
8178;DHT22;4130;48.740;9.132;2023-05-16T04:21:35;10.60;99.90
8178;DHT22;4130;48.740;9.132;2023-05-16T04:24:03;10.30;99.90
8178;DHT22;4130;48.740;9.132;2023-05-16T04:26:30;10.30;99.90
8178;DHT22;4130;48.740;9.132;2023-05-16T04:28:57;10.40;99.90
8178;DHT22;4130;48.740;9.132;2023-05-16T04:31:25;10.50;99.90
8178;DHT22;4130;48.740;9.132;2023-05-16T04:33:52;10.50;99.90
8178;DHT22;4130;48.740;9.132;2023-05-16T04:36:19;10.60;99.90
8178;DHT22;4130;48.740;9.132;2023-05-16T04:38:46;10.60;99.90
8178;DHT22;4130;48.740;9.132;2023-05-16T04:41:13;10.90;99.90
8178;DHT22;4130;48.740;9.132;2023-05-16T04:43:40;11.40;99.90
8178;DHT22;4130;48.740;9.132;2023-05-16T04:46:07;11.00;99.90
8178;DHT22;4130;48.740;9.132;2023-05-16T04:48:35;10.80;99.90
8178;DHT22;4130;48.740;9.132;2023-05-16T04:51:02;10.80;99.90
8178;DHT22;4130;48.740;9.132;2023-05-16T04:53:29;10.90;99.90
8178;DHT22;4130;48.740;9.132;2023-05-16T04:55:56;11.30;99.90
8178;DHT22;4130;48.740;9.132;2023-05-16T04:58:24;11.00;99.90
8178;DHT22;4130;48.740;9.132;2023-05-16T05:00:51;11.00;99.90
8178;DHT22;4130;48.740;9.132;2023-05-16T05:03:22;11.10;99.90
8178;DHT22;4130;48.740;9.132;2023-05-16T05:05:53;11.10;99.90
8178;DHT22;4130;48.740;9.132;2023-05-16T05:08:20;11.50;99.90
8178;DHT22;4130;48.740;9.132;2023-05-16T05:10:47;11.30;99.90
8178;DHT22;4130;48.740;9.132;2023-05-16T05:13:14;11.30;99.90
8178;DHT22;4130;48.740;9.132;2023-05-16T05:15:42;11.40;99.90
8178;DHT22;4130;48.740;9.132;2023-05-16T05:18:09;11.40;99.90
8178;DHT22;4130;48.740;9.132;2023-05-16T05:20:36;11.40;99.90
8178;DHT22;4130;48.740;9.132;2023-05-16T05:23:06;11.60;99.90
8178;DHT22;4130;48.740;9.132;2023-05-16T05:25:59;11.50;99.90
8178;DHT22;4130;48.740;9.132;2023-05-16T05:28:32;11.50;99.90
8178;DHT22;4130;48.740;9.132;2023-05-16T05:31:03;11.60;99.90
8178;DHT22;4130;48.740;9.132;2023-05-16T05:33:39;11.60;99.90
8178;DHT22;4130;48.740;9.132;2023-05-16T05:36:13;11.70;99.90
8178;DHT22;4130;48.740;9.132;2023-05-16T05:38:47;11.70;99.90
8178;DHT22;4130;48.740;9.132;2023-05-16T05:41:14;11.80;99.90
8178;DHT22;4130;48.740;9.132;2023-05-16T05:43:41;11.90;99.90
8178;DHT22;4130;48.740;9.132;2023-05-16T05:46:08;12.00;99.90
8178;DHT22;4130;48.740;9.132;2023-05-16T05:48:35;12.20;99.90
8178;DHT22;4130;48.740;9.132;2023-05-16T05:51:02;11.90;99.90
8178;DHT22;4130;48.740;9.132;2023-05-16T05:53:29;11.90;99.90
8178;DHT22;4130;48.740;9.132;2023-05-16T05:55:57;11.90;99.90
8178;DHT22;4130;48.740;9.132;2023-05-16T05:58:24;11.90;99.90
8178;DHT22;4130;48.740;9.132;2023-05-16T06:00:51;11.80;99.90
8178;DHT22;4130;48.740;9.132;2023-05-16T06:03:18;11.80;99.90
8178;DHT22;4130;48.740;9.132;2023-05-16T06:05:46;12.70;99.90
8178;DHT22;4130;48.740;9.132;2023-05-16T06:08:14;11.80;99.90
8178;DHT22;4130;48.740;9.132;2023-05-16T06:10:41;11.90;99.90
8178;DHT22;4130;48.740;9.132;2023-05-16T06:13:10;11.90;99.90
8178;DHT22;4130;48.740;9.132;2023-05-16T06:15:36;12.00;99.90
8178;DHT22;4130;48.740;9.132;2023-05-16T06:18:03;12.00;99.90
8178;DHT22;4130;48.740;9.132;2023-05-16T06:20:30;12.10;99.90
8178;DHT22;4130;48.740;9.132;2023-05-16T06:22:57;13.00;99.90
8178;DHT22;4130;48.740;9.132;2023-05-16T06:25:24;12.40;99.90
8178;DHT22;4130;48.740;9.132;2023-05-16T06:27:51;12.60;99.90
8178;DHT22;4130;48.740;9.132;2023-05-16T06:30:19;12.80;99.90
8178;DHT22;4130;48.740;9.132;2023-05-16T06:32:46;13.10;99.90
8178;DHT22;4130;48.740;9.132;2023-05-16T06:35:13;13.10;99.90
8178;DHT22;4130;48.740;9.132;2023-05-16T06:37:40;13.00;99.90
8178;DHT22;4130;48.740;9.132;2023-05-16T06:40:07;12.90;99.90
8178;DHT22;4130;48.740;9.132;2023-05-16T06:42:34;12.80;99.90
8178;DHT22;4130;48.740;9.132;2023-05-16T06:45:01;12.70;99.90
8178;DHT22;4130;48.740;9.132;2023-05-16T06:47:29;12.70;99.90
8178;DHT22;4130;48.740;9.132;2023-05-16T06:49:56;12.60;99.90
8178;DHT22;4130;48.740;9.132;2023-05-16T06:52:23;12.50;99.90
8178;DHT22;4130;48.740;9.132;2023-05-16T06:54:51;12.50;99.90
8178;DHT22;4130;48.740;9.132;2023-05-16T06:57:18;12.40;99.90
8178;DHT22;4130;48.740;9.132;2023-05-16T06:59:45;12.20;99.90
8178;DHT22;4130;48.740;9.132;2023-05-16T07:02:12;12.10;99.90
8178;DHT22;4130;48.740;9.132;2023-05-16T07:04:40;12.10;99.90
8178;DHT22;4130;48.740;9.132;2023-05-16T07:07:07;12.10;99.90
8178;DHT22;4130;48.740;9.132;2023-05-16T07:09:33;12.10;99.90
8178;DHT22;4130;48.740;9.132;2023-05-16T07:12:00;12.00;99.90
8178;DHT22;4130;48.740;9.132;2023-05-16T07:14:27;12.00;99.90
8178;DHT22;4130;48.740;9.132;2023-05-16T07:16:54;13.10;99.90
8178;DHT22;4130;48.740;9.132;2023-05-16T07:19:21;12.10;99.90
8178;DHT22;4130;48.740;9.132;2023-05-16T07:21:49;12.30;99.90
8178;DHT22;4130;48.740;9.132;2023-05-16T07:24:15;12.20;99.90
8178;DHT22;4130;48.740;9.132;2023-05-16T07:26:42;12.30;99.90
8178;DHT22;4130;48.740;9.132;2023-05-16T07:29:09;12.40;99.90
8178;DHT22;4130;48.740;9.132;2023-05-16T07:31:36;12.40;99.90
8178;DHT22;4130;48.740;9.132;2023-05-16T07:34:03;12.50;99.90
8178;DHT22;4130;48.740;9.132;2023-05-16T07:36:31;12.40;99.90
8178;DHT22;4130;48.740;9.132;2023-05-16T07:38:59;12.40;99.90
8178;DHT22;4130;48.740;9.132;2023-05-16T07:41:26;12.50;99.90
8178;DHT22;4130;48.740;9.132;2023-05-16T07:43:52;12.50;99.90
8178;DHT22;4130;48.740;9.132;2023-05-16T07:46:19;12.50;99.90
8178;DHT22;4130;48.740;9.132;2023-05-16T07:48:46;12.50;99.90
8178;DHT22;4130;48.740;9.132;2023-05-16T07:51:12;12.60;99.90
8178;DHT22;4130;48.740;9.132;2023-05-16T07:53:39;12.60;99.90
8178;DHT22;4130;48.740;9.132;2023-05-16T07:56:08;12.60;99.90
8178;DHT22;4130;48.740;9.132;2023-05-16T07:58:35;12.70;99.90
8178;DHT22;4130;48.740;9.132;2023-05-16T08:01:01;12.80;99.90
8178;DHT22;4130;48.740;9.132;2023-05-16T08:03:28;12.90;99.90
8178;DHT22;4130;48.740;9.132;2023-05-16T08:05:55;13.00;99.90
8178;DHT22;4130;48.740;9.132;2023-05-16T08:08:22;13.20;99.90
8178;DHT22;4130;48.740;9.132;2023-05-16T08:10:49;13.10;99.90
8178;DHT22;4130;48.740;9.132;2023-05-16T08:13:17;13.30;99.90
8178;DHT22;4130;48.740;9.132;2023-05-16T08:15:44;13.40;99.90
8178;DHT22;4130;48.740;9.132;2023-05-16T08:18:12;13.40;99.90
8178;DHT22;4130;48.740;9.132;2023-05-16T08:20:39;13.20;99.90
8178;DHT22;4130;48.740;9.132;2023-05-16T08:23:06;13.00;99.90
8178;DHT22;4130;48.740;9.132;2023-05-16T08:25:33;12.80;99.90
8178;DHT22;4130;48.740;9.132;2023-05-16T08:28:00;12.90;99.90
8178;DHT22;4130;48.740;9.132;2023-05-16T08:30:28;12.70;99.90
8178;DHT22;4130;48.740;9.132;2023-05-16T08:32:55;12.60;99.90
8178;DHT22;4130;48.740;9.132;2023-05-16T08:35:22;12.40;99.90
8178;DHT22;4130;48.740;9.132;2023-05-16T08:37:49;12.40;99.90
8178;DHT22;4130;48.740;9.132;2023-05-16T08:40:16;12.30;99.90
8178;DHT22;4130;48.740;9.132;2023-05-16T08:42:43;12.30;99.90
8178;DHT22;4130;48.740;9.132;2023-05-16T08:45:10;12.30;99.90
8178;DHT22;4130;48.740;9.132;2023-05-16T08:47:41;12.20;99.90
8178;DHT22;4130;48.740;9.132;2023-05-16T08:50:09;12.40;99.90
8178;DHT22;4130;48.740;9.132;2023-05-16T08:52:37;12.30;99.90
8178;DHT22;4130;48.740;9.132;2023-05-16T08:55:07;12.40;99.90
8178;DHT22;4130;48.740;9.132;2023-05-16T08:57:36;12.60;99.90
8178;DHT22;4130;48.740;9.132;2023-05-16T09:00:05;12.70;99.90
8178;DHT22;4130;48.740;9.132;2023-05-16T09:02:36;12.70;99.90
8178;DHT22;4130;48.740;9.132;2023-05-16T09:05:05;12.60;99.90
8178;DHT22;4130;48.740;9.132;2023-05-16T09:07:34;12.50;99.90
8178;DHT22;4130;48.740;9.132;2023-05-16T09:10:01;12.40;99.90
8178;DHT22;4130;48.740;9.132;2023-05-16T09:12:30;12.20;99.90
8178;DHT22;4130;48.740;9.132;2023-05-16T09:14:57;12.10;99.90
8178;DHT22;4130;48.740;9.132;2023-05-16T09:17:25;12.10;99.90
8178;DHT22;4130;48.740;9.132;2023-05-16T09:19:51;12.10;99.90
8178;DHT22;4130;48.740;9.132;2023-05-16T09:22:23;11.90;99.90
8178;DHT22;4130;48.740;9.132;2023-05-16T09:24:50;11.60;99.90
8178;DHT22;4130;48.740;9.132;2023-05-16T09:27:17;11.60;99.90
8178;DHT22;4130;48.740;9.132;2023-05-16T09:29:50;11.60;99.90
8178;DHT22;4130;48.740;9.132;2023-05-16T09:32:17;11.90;99.90
8178;DHT22;4130;48.740;9.132;2023-05-16T09:34:44;12.30;99.90
8178;DHT22;4130;48.740;9.132;2023-05-16T09:37:14;12.60;99.90
8178;DHT22;4130;48.740;9.132;2023-05-16T09:39:48;12.70;99.90
8178;DHT22;4130;48.740;9.132;2023-05-16T09:42:15;12.90;99.90
8178;DHT22;4130;48.740;9.132;2023-05-16T09:44:45;13.10;99.90
8178;DHT22;4130;48.740;9.132;2023-05-16T09:47:13;13.30;99.90
8178;DHT22;4130;48.740;9.132;2023-05-16T09:49:41;13.40;99.90
8178;DHT22;4130;48.740;9.132;2023-05-16T09:52:08;13.50;99.90
8178;DHT22;4130;48.740;9.132;2023-05-16T09:54:35;13.60;99.90
8178;DHT22;4130;48.740;9.132;2023-05-16T09:57:03;13.80;99.90
8178;DHT22;4130;48.740;9.132;2023-05-16T09:59:34;13.90;99.90
8178;DHT22;4130;48.740;9.132;2023-05-16T10:02:02;14.10;99.90
8178;DHT22;4130;48.740;9.132;2023-05-16T10:04:30;14.10;99.90
8178;DHT22;4130;48.740;9.132;2023-05-16T10:07:01;15.50;99.90
8178;DHT22;4130;48.740;9.132;2023-05-16T10:09:31;14.10;99.90
8178;DHT22;4130;48.740;9.132;2023-05-16T10:12:00;14.40;99.90
8178;DHT22;4130;48.740;9.132;2023-05-16T10:14:32;15.30;99.90
8178;DHT22;4130;48.740;9.132;2023-05-16T10:17:00;15.70;99.90
8178;DHT22;4130;48.740;9.132;2023-05-16T10:19:29;16.10;99.90
8178;DHT22;4130;48.740;9.132;2023-05-16T10:21:59;16.30;99.90
8178;DHT22;4130;48.740;9.132;2023-05-16T10:24:32;16.40;99.90
8178;DHT22;4130;48.740;9.132;2023-05-16T10:27:03;16.30;99.90
8178;DHT22;4130;48.740;9.132;2023-05-16T10:29:32;16.30;99.90
8178;DHT22;4130;48.740;9.132;2023-05-16T10:31:59;16.40;99.90
8178;DHT22;4130;48.740;9.132;2023-05-16T10:34:26;16.80;99.90
8178;DHT22;4130;48.740;9.132;2023-05-16T10:36:53;16.60;99.90
8178;DHT22;4130;48.740;9.132;2023-05-16T10:39:21;16.80;99.90
8178;DHT22;4130;48.740;9.132;2023-05-16T10:41:48;17.10;99.90
8178;DHT22;4130;48.740;9.132;2023-05-16T10:44:16;17.00;99.90
8178;DHT22;4130;48.740;9.132;2023-05-16T10:46:46;16.60;99.90
8178;DHT22;4130;48.740;9.132;2023-05-16T10:49:20;15.80;99.90
8178;DHT22;4130;48.740;9.132;2023-05-16T10:52:04;14.80;99.90
8178;DHT22;4130;48.740;9.132;2023-05-16T10:54:35;14.00;99.90
8178;DHT22;4130;48.740;9.132;2023-05-16T10:57:07;13.30;99.90
8178;DHT22;4130;48.740;9.132;2023-05-16T10:59:44;12.70;99.90
8178;DHT22;4130;48.740;9.132;2023-05-16T11:02:27;12.20;99.90
8178;DHT22;4130;48.740;9.132;2023-05-16T11:04:58;11.80;99.90
8178;DHT22;4130;48.740;9.132;2023-05-16T11:07:31;11.50;99.90
8178;DHT22;4130;48.740;9.132;2023-05-16T11:10:03;11.60;99.90
8178;DHT22;4130;48.740;9.132;2023-05-16T11:12:51;11.20;99.90
8178;DHT22;4130;48.740;9.132;2023-05-16T11:15:22;11.10;99.90
8178;DHT22;4130;48.740;9.132;2023-05-16T11:17:50;11.00;99.90
8178;DHT22;4130;48.740;9.132;2023-05-16T11:20:24;11.10;99.90
8178;DHT22;4130;48.740;9.132;2023-05-16T11:23:20;11.50;99.90
8178;DHT22;4130;48.740;9.132;2023-05-16T11:25:52;11.10;99.90
8178;DHT22;4130;48.740;9.132;2023-05-16T11:28:25;11.10;99.90
8178;DHT22;4130;48.740;9.132;2023-05-16T11:30:54;11.10;99.90
8178;DHT22;4130;48.740;9.132;2023-05-16T11:33:23;11.10;99.90
8178;DHT22;4130;48.740;9.132;2023-05-16T11:36:00;11.10;99.90
8178;DHT22;4130;48.740;9.132;2023-05-16T11:38:30;11.10;99.90
8178;DHT22;4130;48.740;9.132;2023-05-16T11:41:02;11.00;99.90
8178;DHT22;4130;48.740;9.132;2023-05-16T11:43:36;11.00;99.90
8178;DHT22;4130;48.740;9.132;2023-05-16T11:46:03;10.90;99.90
8178;DHT22;4130;48.740;9.132;2023-05-16T11:48:30;11.00;99.90
8178;DHT22;4130;48.740;9.132;2023-05-16T11:50:57;11.00;99.90
8178;DHT22;4130;48.740;9.132;2023-05-16T11:53:24;11.10;99.90
8178;DHT22;4130;48.740;9.132;2023-05-16T11:55:52;11.10;99.90
8178;DHT22;4130;48.740;9.132;2023-05-16T11:58:19;11.10;99.90
8178;DHT22;4130;48.740;9.132;2023-05-16T12:00:50;11.20;99.90
8178;DHT22;4130;48.740;9.132;2023-05-16T12:03:18;11.20;99.90
8178;DHT22;4130;48.740;9.132;2023-05-16T12:05:51;11.30;99.90
8178;DHT22;4130;48.740;9.132;2023-05-16T12:08:19;11.30;99.90
8178;DHT22;4130;48.740;9.132;2023-05-16T12:10:48;11.30;99.90
8178;DHT22;4130;48.740;9.132;2023-05-16T12:13:18;11.20;99.90
8178;DHT22;4130;48.740;9.132;2023-05-16T12:15:45;11.30;99.90
8178;DHT22;4130;48.740;9.132;2023-05-16T12:18:13;11.10;99.90
8178;DHT22;4130;48.740;9.132;2023-05-16T12:20:40;11.30;99.90
8178;DHT22;4130;48.740;9.132;2023-05-16T12:23:10;11.10;99.90
8178;DHT22;4130;48.740;9.132;2023-05-16T12:25:38;11.20;99.90
8178;DHT22;4130;48.740;9.132;2023-05-16T12:28:08;11.30;99.90
8178;DHT22;4130;48.740;9.132;2023-05-16T12:30:40;11.40;99.90
8178;DHT22;4130;48.740;9.132;2023-05-16T12:33:08;11.50;99.90
8178;DHT22;4130;48.740;9.132;2023-05-16T12:35:37;11.60;99.90
8178;DHT22;4130;48.740;9.132;2023-05-16T12:38:05;11.80;99.90
8178;DHT22;4130;48.740;9.132;2023-05-16T12:40:33;12.00;99.90
8178;DHT22;4130;48.740;9.132;2023-05-16T12:43:01;12.10;99.90
8178;DHT22;4130;48.740;9.132;2023-05-16T12:45:28;12.10;99.90
8178;DHT22;4130;48.740;9.132;2023-05-16T12:47:57;12.10;99.90
8178;DHT22;4130;48.740;9.132;2023-05-16T12:50:32;12.20;99.90
8178;DHT22;4130;48.740;9.132;2023-05-16T12:52:59;12.30;99.90
8178;DHT22;4130;48.740;9.132;2023-05-16T12:55:26;12.40;99.90
8178;DHT22;4130;48.740;9.132;2023-05-16T12:57:55;12.40;99.90
8178;DHT22;4130;48.740;9.132;2023-05-16T13:00:22;12.40;99.90
8178;DHT22;4130;48.740;9.132;2023-05-16T13:02:49;12.90;99.90
8178;DHT22;4130;48.740;9.132;2023-05-16T13:05:18;12.10;99.90
8178;DHT22;4130;48.740;9.132;2023-05-16T13:07:47;12.20;99.90
8178;DHT22;4130;48.740;9.132;2023-05-16T13:10:17;12.40;99.90
8178;DHT22;4130;48.740;9.132;2023-05-16T13:12:45;12.40;99.90
8178;DHT22;4130;48.740;9.132;2023-05-16T13:15:12;12.50;99.90
8178;DHT22;4130;48.740;9.132;2023-05-16T13:17:41;12.30;99.90
8178;DHT22;4130;48.740;9.132;2023-05-16T13:20:10;12.20;99.90
8178;DHT22;4130;48.740;9.132;2023-05-16T13:22:41;12.00;99.90
8178;DHT22;4130;48.740;9.132;2023-05-16T13:25:09;11.80;99.90
8178;DHT22;4130;48.740;9.132;2023-05-16T13:27:36;11.60;99.90
8178;DHT22;4130;48.740;9.132;2023-05-16T13:30:03;11.50;99.90
8178;DHT22;4130;48.740;9.132;2023-05-16T13:32:30;11.40;99.90
8178;DHT22;4130;48.740;9.132;2023-05-16T13:34:57;11.20;99.90
8178;DHT22;4130;48.740;9.132;2023-05-16T13:37:24;11.40;99.90
8178;DHT22;4130;48.740;9.132;2023-05-16T13:39:53;11.20;99.90
8178;DHT22;4130;48.740;9.132;2023-05-16T13:42:21;11.00;99.90
8178;DHT22;4130;48.740;9.132;2023-05-16T13:44:48;11.00;99.90
8178;DHT22;4130;48.740;9.132;2023-05-16T13:47:15;10.90;99.90
8178;DHT22;4130;48.740;9.132;2023-05-16T13:49:42;10.80;99.90
8178;DHT22;4130;48.740;9.132;2023-05-16T13:52:09;10.80;99.90
8178;DHT22;4130;48.740;9.132;2023-05-16T13:54:36;10.80;99.90
8178;DHT22;4130;48.740;9.132;2023-05-16T13:57:05;10.80;99.90
8178;DHT22;4130;48.740;9.132;2023-05-16T13:59:32;11.00;99.90
8178;DHT22;4130;48.740;9.132;2023-05-16T14:01:59;11.10;99.90
8178;DHT22;4130;48.740;9.132;2023-05-16T14:04:26;11.30;99.90
8178;DHT22;4130;48.740;9.132;2023-05-16T14:06:53;11.40;99.90
8178;DHT22;4130;48.740;9.132;2023-05-16T14:09:21;11.50;99.90
8178;DHT22;4130;48.740;9.132;2023-05-16T14:11:48;11.60;99.90
8178;DHT22;4130;48.740;9.132;2023-05-16T14:14:16;11.80;99.90
8178;DHT22;4130;48.740;9.132;2023-05-16T14:16:43;11.60;99.90
8178;DHT22;4130;48.740;9.132;2023-05-16T14:19:10;11.50;99.90
8178;DHT22;4130;48.740;9.132;2023-05-16T14:21:37;11.50;99.90
8178;DHT22;4130;48.740;9.132;2023-05-16T14:24:05;11.90;99.90
8178;DHT22;4130;48.740;9.132;2023-05-16T14:26:32;11.40;99.90
8178;DHT22;4130;48.740;9.132;2023-05-16T14:28:59;11.40;99.90
8178;DHT22;4130;48.740;9.132;2023-05-16T14:31:27;11.40;99.90
8178;DHT22;4130;48.740;9.132;2023-05-16T14:33:54;11.60;99.90
8178;DHT22;4130;48.740;9.132;2023-05-16T14:36:24;11.70;99.90
8178;DHT22;4130;48.740;9.132;2023-05-16T14:38:51;11.80;99.90
8178;DHT22;4130;48.740;9.132;2023-05-16T14:41:18;12.70;99.90
8178;DHT22;4130;48.740;9.132;2023-05-16T14:43:45;11.80;99.90
8178;DHT22;4130;48.740;9.132;2023-05-16T14:46:12;11.70;99.90
8178;DHT22;4130;48.740;9.132;2023-05-16T14:48:40;11.70;99.90
8178;DHT22;4130;48.740;9.132;2023-05-16T14:51:07;11.70;99.90
8178;DHT22;4130;48.740;9.132;2023-05-16T14:53:33;11.70;99.90
8178;DHT22;4130;48.740;9.132;2023-05-16T14:56:01;11.80;99.90
8178;DHT22;4130;48.740;9.132;2023-05-16T14:58:28;11.80;99.90
8178;DHT22;4130;48.740;9.132;2023-05-16T15:00:55;12.00;99.90
8178;DHT22;4130;48.740;9.132;2023-05-16T15:03:22;12.20;99.90
8178;DHT22;4130;48.740;9.132;2023-05-16T15:05:50;12.00;99.90
8178;DHT22;4130;48.740;9.132;2023-05-16T15:08:17;12.00;99.90
8178;DHT22;4130;48.740;9.132;2023-05-16T15:10:43;11.90;99.90
8178;DHT22;4130;48.740;9.132;2023-05-16T15:13:10;11.90;99.90
8178;DHT22;4130;48.740;9.132;2023-05-16T15:15:37;11.80;99.90
8178;DHT22;4130;48.740;9.132;2023-05-16T15:18:04;11.90;99.90
8178;DHT22;4130;48.740;9.132;2023-05-16T15:20:30;11.90;99.90
8178;DHT22;4130;48.740;9.132;2023-05-16T15:22:59;13.00;99.90
8178;DHT22;4130;48.740;9.132;2023-05-16T15:25:26;12.20;99.90
8178;DHT22;4130;48.740;9.132;2023-05-16T15:27:52;12.20;99.90
8178;DHT22;4130;48.740;9.132;2023-05-16T15:30:19;12.30;99.90
8178;DHT22;4130;48.740;9.132;2023-05-16T15:32:53;12.50;99.90
8178;DHT22;4130;48.740;9.132;2023-05-16T15:35:20;12.60;99.90
8178;DHT22;4130;48.740;9.132;2023-05-16T15:37:47;12.90;99.90
8178;DHT22;4130;48.740;9.132;2023-05-16T15:40:15;12.90;99.90
8178;DHT22;4130;48.740;9.132;2023-05-16T15:42:43;12.90;99.90
8178;DHT22;4130;48.740;9.132;2023-05-16T15:45:11;12.80;99.90
8178;DHT22;4130;48.740;9.132;2023-05-16T15:47:38;12.80;99.90
8178;DHT22;4130;48.740;9.132;2023-05-16T15:50:05;12.50;99.90
8178;DHT22;4130;48.740;9.132;2023-05-16T15:52:32;12.30;99.90
8178;DHT22;4130;48.740;9.132;2023-05-16T15:55:00;12.30;99.90
8178;DHT22;4130;48.740;9.132;2023-05-16T15:57:30;12.40;99.90
8178;DHT22;4130;48.740;9.132;2023-05-16T15:59:57;12.50;99.90
8178;DHT22;4130;48.740;9.132;2023-05-16T16:02:24;12.80;99.90
8178;DHT22;4130;48.740;9.132;2023-05-16T16:04:51;13.10;99.90
8178;DHT22;4130;48.740;9.132;2023-05-16T16:07:18;13.20;99.90
8178;DHT22;4130;48.740;9.132;2023-05-16T16:09:45;13.30;99.90